createdAt,value
2023-05-11T00:00:41.569Z,999.27
2023-05-11T00:01:41.565Z,999.23
2023-05-11T00:02:41.613Z,999.22
2023-05-11T00:03:41.541Z,999.22
2023-05-11T00:04:41.664Z,999.20
2023-05-11T00:05:41.497Z,999.24
2023-05-11T00:06:41.476Z,999.22
2023-05-11T00:07:41.453Z,999.28
2023-05-11T00:08:41.445Z,999.26
2023-05-11T00:09:41.445Z,999.26
2023-05-11T00:10:41.432Z,999.32
2023-05-11T00:11:41.406Z,999.30
2023-05-11T00:12:41.400Z,999.25
2023-05-11T00:13:41.383Z,999.30
2023-05-11T00:14:41.386Z,999.23
2023-05-11T00:15:41.397Z,999.26
2023-05-11T00:16:41.341Z,999.22
2023-05-11T00:17:41.372Z,999.27
2023-05-11T00:18:41.351Z,999.24
2023-05-11T00:19:41.316Z,999.26
2023-05-11T00:20:41.287Z,999.25
2023-05-11T00:21:41.286Z,999.24
2023-05-11T00:22:42.933Z,999.24
2023-05-11T00:23:41.319Z,999.27
2023-05-11T00:24:41.313Z,999.27
2023-05-11T00:25:41.259Z,999.31
2023-05-11T00:26:41.252Z,999.27
2023-05-11T00:27:41.198Z,999.33
2023-05-11T00:28:41.199Z,999.26
2023-05-11T00:29:41.177Z,999.27
2023-05-11T00:30:41.170Z,999.20
2023-05-11T00:31:41.253Z,999.21
2023-05-11T00:32:41.164Z,999.19
2023-05-11T00:33:41.150Z,999.20
2023-05-11T00:34:41.112Z,999.17
2023-05-11T00:35:41.094Z,999.17
2023-05-11T00:36:41.363Z,999.18
2023-05-11T00:37:41.096Z,999.16
2023-05-11T00:38:41.086Z,999.14
2023-05-11T00:39:41.038Z,999.15
2023-05-11T00:40:41.027Z,999.21
2023-05-11T00:41:41.010Z,999.23
2023-05-11T00:42:41.013Z,999.14
2023-05-11T00:43:40.987Z,999.14
2023-05-11T00:44:40.973Z,999.10
2023-05-11T00:45:40.955Z,999.12
2023-05-11T00:46:41.029Z,999.17
2023-05-11T00:47:41.006Z,999.19
2023-05-11T00:48:40.923Z,999.14
2023-05-11T00:49:40.941Z,999.12
2023-05-11T00:50:40.898Z,999.15
2023-05-11T00:51:40.903Z,999.14
2023-05-11T00:52:40.887Z,999.14
2023-05-11T00:53:40.859Z,999.16
2023-05-11T00:54:40.840Z,999.15
2023-05-11T00:55:40.828Z,999.17
2023-05-11T00:56:40.828Z,999.15
2023-05-11T00:57:40.825Z,999.12
2023-05-11T00:58:40.791Z,999.10
2023-05-11T00:59:40.770Z,999.16
2023-05-11T01:00:40.792Z,999.09
2023-05-11T01:01:40.777Z,999.12
2023-05-11T01:02:40.917Z,999.10
2023-05-11T01:03:40.726Z,999.13
2023-05-11T01:04:40.718Z,999.12
2023-05-11T01:05:40.736Z,999.12
2023-05-11T01:06:40.693Z,999.14
2023-05-11T01:07:40.697Z,999.11
2023-05-11T01:08:40.666Z,999.17
2023-05-11T01:09:40.656Z,999.13
2023-05-11T01:10:40.661Z,999.11
2023-05-11T01:11:40.677Z,999.11
2023-05-11T01:12:40.617Z,999.11
2023-05-11T01:13:40.609Z,999.09
2023-05-11T01:14:40.613Z,999.11
2023-05-11T01:15:40.590Z,999.13
2023-05-11T01:16:40.571Z,999.12
2023-05-11T01:17:40.578Z,999.10
2023-05-11T01:18:40.554Z,999.08
2023-05-11T01:19:40.533Z,999.07
2023-05-11T01:20:40.510Z,999.07
2023-05-11T01:21:40.512Z,999.08
2023-05-11T01:22:40.490Z,999.13
2023-05-11T01:23:40.466Z,999.06
2023-05-11T01:24:40.476Z,999.13
2023-05-11T01:25:40.440Z,999.11
2023-05-11T01:26:40.431Z,999.06
2023-05-11T01:27:40.418Z,999.06
2023-05-11T01:28:40.416Z,999.08
2023-05-11T01:29:40.403Z,999.09
2023-05-11T01:30:40.373Z,999.08
2023-05-11T01:31:40.412Z,999.08
2023-05-11T01:32:41.821Z,999.13
2023-05-11T01:33:40.356Z,999.11
2023-05-11T01:34:40.319Z,999.10
2023-05-11T01:35:40.308Z,999.11
2023-05-11T01:36:40.311Z,999.07
2023-05-11T01:37:40.301Z,999.09
2023-05-11T01:38:40.310Z,999.17
2023-05-11T01:39:40.256Z,999.19
2023-05-11T01:40:40.243Z,999.21
2023-05-11T01:41:40.241Z,999.20
2023-05-11T01:42:40.217Z,999.16
2023-05-11T01:43:40.214Z,999.20
2023-05-11T01:44:40.192Z,999.22
2023-05-11T01:45:40.204Z,999.15
2023-05-11T01:46:40.221Z,999.21
2023-05-11T01:47:40.252Z,999.18
2023-05-11T01:48:40.157Z,999.23
2023-05-11T01:49:40.122Z,999.16
2023-05-11T01:50:40.112Z,999.22
2023-05-11T01:51:40.104Z,999.17
2023-05-11T01:52:40.108Z,999.21
2023-05-11T01:53:40.100Z,999.19
2023-05-11T01:54:40.061Z,999.21
2023-05-11T01:55:40.041Z,999.24
2023-05-11T01:56:40.028Z,999.17
2023-05-11T01:57:40.042Z,999.14
2023-05-11T01:58:40.013Z,999.17
2023-05-11T01:59:39.998Z,999.18
2023-05-11T02:00:39.976Z,999.17
2023-05-11T02:01:40.008Z,999.21
2023-05-11T02:02:40.032Z,999.21
2023-05-11T02:03:40.074Z,999.22
2023-05-11T02:04:39.925Z,999.18
2023-05-11T02:05:39.918Z,999.20
2023-05-11T02:06:39.913Z,999.21
2023-05-11T02:07:39.885Z,999.21
2023-05-11T02:08:39.871Z,999.22
2023-05-11T02:09:39.881Z,999.26
2023-05-11T02:10:39.850Z,999.21
2023-05-11T02:11:39.857Z,999.21
2023-05-11T02:12:39.833Z,999.24
2023-05-11T02:13:39.804Z,999.23
2023-05-11T02:14:39.804Z,999.24
2023-05-11T02:15:39.837Z,999.24
2023-05-11T02:16:39.782Z,999.21
2023-05-11T02:17:39.772Z,999.26
2023-05-11T02:18:39.794Z,999.21
2023-05-11T02:19:39.726Z,999.24
2023-05-11T02:20:39.731Z,999.25
2023-05-11T02:21:39.725Z,999.25
2023-05-11T02:22:39.696Z,999.24
2023-05-11T02:23:39.677Z,999.30
2023-05-11T02:24:39.664Z,999.25
2023-05-11T02:25:39.682Z,999.23
2023-05-11T02:26:39.637Z,999.22
2023-05-11T02:27:39.620Z,999.26
2023-05-11T02:28:39.624Z,999.24
2023-05-11T02:29:39.597Z,999.26
2023-05-11T02:30:39.601Z,999.23
2023-05-11T02:31:39.662Z,999.28
2023-05-11T02:32:39.611Z,999.24
2023-05-11T02:33:39.545Z,999.25
2023-05-11T02:34:39.545Z,999.28
2023-05-11T02:35:39.563Z,999.28
2023-05-11T02:36:39.509Z,999.30
2023-05-11T02:37:39.491Z,999.30
2023-05-11T02:38:39.479Z,999.32
2023-05-11T02:39:39.475Z,999.32
2023-05-11T02:40:39.453Z,999.28
2023-05-11T02:41:39.462Z,999.31
2023-05-11T02:42:39.437Z,999.31
2023-05-11T02:43:39.429Z,999.34
2023-05-11T02:44:39.409Z,999.33
2023-05-11T02:45:39.384Z,999.27
2023-05-11T02:46:39.426Z,999.34
2023-05-11T02:47:39.455Z,999.30
2023-05-11T02:48:39.367Z,999.27
2023-05-11T02:49:39.331Z,999.23
2023-05-11T02:50:39.314Z,999.28
2023-05-11T02:51:39.309Z,999.26
2023-05-11T02:52:39.289Z,999.28
2023-05-11T02:53:39.301Z,999.22
2023-05-11T02:54:39.265Z,999.26
2023-05-11T02:55:39.251Z,999.28
2023-05-11T02:56:39.237Z,999.34
2023-05-11T02:57:39.263Z,999.25
2023-05-11T02:58:39.235Z,999.27
2023-05-11T02:59:39.196Z,999.26
2023-05-11T03:00:39.242Z,999.32
2023-05-11T03:01:39.339Z,999.30
2023-05-11T03:02:39.256Z,999.28
2023-05-11T03:03:39.341Z,999.29
2023-05-11T03:04:39.131Z,999.32
2023-05-11T03:05:39.114Z,999.28
2023-05-11T03:06:39.103Z,999.35
2023-05-11T03:07:39.105Z,999.25
2023-05-11T03:08:39.080Z,999.27
2023-05-11T03:09:39.062Z,999.24
2023-05-11T03:10:39.058Z,999.28
2023-05-11T03:11:39.057Z,999.27
2023-05-11T03:12:39.034Z,999.28
2023-05-11T03:13:39.032Z,999.27
2023-05-11T03:14:39.012Z,999.24
2023-05-11T03:15:38.985Z,999.31
2023-05-11T03:16:39.037Z,999.28
2023-05-11T03:17:38.967Z,999.24
2023-05-11T03:18:39.020Z,999.26
2023-05-11T03:19:38.929Z,999.24
2023-05-11T03:20:38.919Z,999.24
2023-05-11T03:21:38.919Z,999.28
2023-05-11T03:22:38.892Z,999.29
2023-05-11T03:23:38.884Z,999.22
2023-05-11T03:24:38.866Z,999.23
2023-05-11T03:25:38.874Z,999.25
2023-05-11T03:26:38.854Z,999.30
2023-05-11T03:27:38.831Z,999.27
2023-05-11T03:28:38.817Z,999.29
2023-05-11T03:29:38.834Z,999.24
2023-05-11T03:30:38.799Z,999.24
2023-05-11T03:31:38.875Z,999.26
2023-05-11T03:32:38.791Z,999.23
2023-05-11T03:33:38.746Z,999.22
2023-05-11T03:34:38.748Z,999.25
2023-05-11T03:35:38.742Z,999.16
2023-05-11T03:36:38.712Z,999.18
2023-05-11T03:37:38.700Z,999.17
2023-05-11T03:38:38.679Z,999.13
2023-05-11T03:39:38.681Z,999.17
2023-05-11T03:40:38.654Z,999.15
2023-05-11T03:41:38.645Z,999.13
2023-05-11T03:42:38.626Z,999.17
2023-05-11T03:43:38.615Z,999.13
2023-05-11T03:44:38.618Z,999.14
2023-05-11T03:45:38.692Z,999.13
2023-05-11T03:46:38.746Z,999.21
2023-05-11T03:47:38.604Z,999.18
2023-05-11T03:48:38.575Z,999.25
2023-05-11T03:49:38.553Z,999.21
2023-05-11T03:50:38.523Z,999.18
2023-05-11T03:51:38.510Z,999.23
2023-05-11T03:52:38.493Z,999.23
2023-05-11T03:53:38.508Z,999.23
2023-05-11T03:54:38.473Z,999.21
2023-05-11T03:55:38.457Z,999.20
2023-05-11T03:56:38.441Z,999.21
2023-05-11T03:57:38.429Z,999.22
2023-05-11T03:58:38.429Z,999.16
2023-05-11T03:59:38.401Z,999.21
2023-05-11T04:00:38.382Z,999.22
2023-05-11T04:01:38.408Z,999.17
2023-05-11T04:02:38.436Z,999.19
2023-05-11T04:03:38.545Z,999.19
2023-05-11T04:04:38.373Z,999.21
2023-05-11T04:05:38.329Z,999.20
2023-05-11T04:06:38.308Z,999.17
2023-05-11T04:07:38.312Z,999.13
2023-05-11T04:08:38.282Z,999.16
2023-05-11T04:09:38.285Z,999.17
2023-05-11T04:10:38.282Z,999.19
2023-05-11T04:11:38.243Z,999.17
2023-05-11T04:12:38.241Z,999.13
2023-05-11T04:13:38.213Z,999.14
2023-05-11T04:14:38.197Z,999.17
2023-05-11T04:15:38.189Z,999.21
2023-05-11T04:16:38.241Z,999.20
2023-05-11T04:17:38.213Z,999.24
2023-05-11T04:18:38.229Z,999.20
2023-05-11T04:19:38.137Z,999.20
2023-05-11T04:20:38.120Z,999.18
2023-05-11T04:21:38.130Z,999.16
2023-05-11T04:22:38.096Z,999.22
2023-05-11T04:23:38.081Z,999.15
2023-05-11T04:24:38.065Z,999.22
2023-05-11T04:25:38.054Z,999.22
2023-05-11T04:26:38.056Z,999.23
2023-05-11T04:27:38.033Z,999.18
2023-05-11T04:28:38.010Z,999.30
2023-05-11T04:29:38.003Z,999.25
2023-05-11T04:30:37.989Z,999.25
2023-05-11T04:31:37.997Z,999.28
2023-05-11T04:32:37.986Z,999.27
2023-05-11T04:33:37.984Z,999.30
2023-05-11T04:34:37.933Z,999.27
2023-05-11T04:35:37.933Z,999.35
2023-05-11T04:36:37.944Z,999.28
2023-05-11T04:37:37.892Z,999.28
2023-05-11T04:38:37.883Z,999.30
2023-05-11T04:39:37.873Z,999.29
2023-05-11T04:40:37.870Z,999.24
2023-05-11T04:41:37.853Z,999.27
2023-05-11T04:42:37.832Z,999.34
2023-05-11T04:43:37.834Z,999.32
2023-05-11T04:44:37.799Z,999.31
2023-05-11T04:45:37.807Z,999.34
2023-05-11T04:46:37.858Z,999.34
2023-05-11T04:47:37.797Z,999.38
2023-05-11T04:48:37.754Z,999.35
2023-05-11T04:49:37.756Z,999.40
2023-05-11T04:50:37.734Z,999.33
2023-05-11T04:51:37.708Z,999.41
2023-05-11T04:52:37.701Z,999.37
2023-05-11T04:53:37.695Z,999.40
2023-05-11T04:54:37.679Z,999.35
2023-05-11T04:55:37.668Z,999.39
2023-05-11T04:56:37.647Z,999.33
2023-05-11T04:57:37.633Z,999.34
2023-05-11T04:58:37.614Z,999.39
2023-05-11T04:59:37.741Z,999.41
2023-05-11T05:00:37.647Z,999.36
2023-05-11T05:01:37.792Z,999.38
2023-05-11T05:02:37.628Z,999.38
2023-05-11T05:03:37.567Z,999.37
2023-05-11T05:04:37.550Z,999.43
2023-05-11T05:05:37.546Z,999.45
2023-05-11T05:06:37.571Z,999.43
2023-05-11T05:07:37.499Z,999.48
2023-05-11T05:08:37.504Z,999.43
2023-05-11T05:09:37.488Z,999.48
2023-05-11T05:10:37.454Z,999.46
2023-05-11T05:11:37.452Z,999.46
2023-05-11T05:12:37.428Z,999.44
2023-05-11T05:13:37.440Z,999.48
2023-05-11T05:14:37.407Z,999.48
2023-05-11T05:15:37.392Z,999.51
2023-05-11T05:16:37.439Z,999.47
2023-05-11T05:17:37.376Z,999.48
2023-05-11T05:18:37.404Z,999.48
2023-05-11T05:19:37.378Z,999.46
2023-05-11T05:20:37.338Z,999.46
2023-05-11T05:21:37.339Z,999.50
2023-05-11T05:22:37.366Z,999.50
2023-05-11T05:23:37.298Z,999.54
2023-05-11T05:24:37.272Z,999.57
2023-05-11T05:25:37.266Z,999.53
2023-05-11T05:26:37.250Z,999.54
2023-05-11T05:27:37.247Z,999.45
2023-05-11T05:28:37.218Z,999.51
2023-05-11T05:29:37.346Z,999.50
2023-05-11T05:30:38.233Z,999.52
2023-05-11T05:31:37.179Z,999.52
2023-05-11T05:32:37.325Z,999.50
2023-05-11T05:33:37.154Z,999.52
2023-05-11T05:34:37.143Z,999.52
2023-05-11T05:35:37.126Z,999.54
2023-05-11T05:36:37.126Z,999.56
2023-05-11T05:37:37.134Z,999.54
2023-05-11T05:38:37.087Z,999.56
2023-05-11T05:39:37.083Z,999.53
2023-05-11T05:40:37.066Z,999.57
2023-05-11T05:41:37.127Z,999.54
2023-05-11T05:42:37.037Z,999.58
2023-05-11T05:43:37.025Z,999.56
2023-05-11T05:44:37.011Z,999.61
2023-05-11T05:45:37.010Z,999.59
2023-05-11T05:46:37.028Z,999.62
2023-05-11T05:47:37.040Z,999.64
2023-05-11T05:48:36.958Z,999.63
2023-05-11T05:49:36.970Z,999.66
2023-05-11T05:50:36.947Z,999.70
2023-05-11T05:51:36.955Z,999.64
2023-05-11T05:52:36.905Z,999.66
2023-05-11T05:53:36.913Z,999.67
2023-05-11T05:54:36.907Z,999.68
2023-05-11T05:55:36.886Z,999.70
2023-05-11T05:56:36.851Z,999.71
2023-05-11T05:57:36.841Z,999.74
2023-05-11T05:58:36.832Z,999.70
2023-05-11T05:59:36.826Z,999.70
2023-05-11T06:00:36.831Z,999.68
2023-05-11T06:01:36.790Z,999.73
2023-05-11T06:02:36.918Z,999.70
2023-05-11T06:03:36.935Z,999.70
2023-05-11T06:04:36.828Z,999.69
2023-05-11T06:05:36.749Z,999.72
2023-05-11T06:06:36.747Z,999.67
2023-05-11T06:07:36.706Z,999.71
2023-05-11T06:08:36.698Z,999.79
2023-05-11T06:09:38.562Z,999.72
2023-05-11T06:10:36.706Z,999.76
2023-05-11T06:11:36.668Z,999.79
2023-05-11T06:12:36.646Z,999.81
2023-05-11T06:13:36.638Z,999.79
2023-05-11T06:14:36.637Z,999.81
2023-05-11T06:15:36.599Z,999.80
2023-05-11T06:16:36.628Z,999.80
2023-05-11T06:17:36.614Z,999.81
2023-05-11T06:18:36.578Z,999.80
2023-05-11T06:19:36.564Z,999.86
2023-05-11T06:20:36.536Z,999.81
2023-05-11T06:21:36.518Z,999.85
2023-05-11T06:22:36.507Z,999.86
2023-05-11T06:23:36.507Z,999.82
2023-05-11T06:24:36.494Z,999.85
2023-05-11T06:25:36.493Z,999.84
2023-05-11T06:26:36.515Z,999.80
2023-05-11T06:27:36.444Z,999.83
2023-05-11T06:28:36.450Z,999.78
2023-05-11T06:29:36.430Z,999.81
2023-05-11T06:30:36.410Z,999.81
2023-05-11T06:31:36.417Z,999.81
2023-05-11T06:32:36.406Z,999.81
2023-05-11T06:33:36.381Z,999.82
2023-05-11T06:34:36.354Z,999.84
2023-05-11T06:35:36.338Z,999.82
2023-05-11T06:36:36.332Z,999.82
2023-05-11T06:37:36.313Z,999.82
2023-05-11T06:38:36.323Z,999.83
2023-05-11T06:39:36.288Z,999.84
2023-05-11T06:40:36.268Z,999.86
2023-05-11T06:41:36.276Z,999.81
2023-05-11T06:42:36.256Z,999.82
2023-05-11T06:43:36.260Z,999.80
2023-05-11T06:44:36.221Z,999.85
2023-05-11T06:45:36.235Z,999.79
2023-05-11T06:46:36.272Z,999.82
2023-05-11T06:47:36.260Z,999.83
2023-05-11T06:48:36.166Z,999.80
2023-05-11T06:49:36.158Z,999.81
2023-05-11T06:50:36.139Z,999.80
2023-05-11T06:51:36.138Z,999.80
2023-05-11T06:52:36.124Z,999.82
2023-05-11T06:53:36.096Z,999.78
2023-05-11T06:54:36.080Z,999.82
2023-05-11T06:55:36.072Z,999.87
2023-05-11T06:56:36.072Z,999.81
2023-05-11T06:57:36.080Z,999.83
2023-05-11T06:58:36.039Z,999.84
2023-05-11T06:59:36.018Z,999.77
2023-05-11T07:00:36.032Z,999.78
2023-05-11T07:01:36.069Z,999.78
2023-05-11T07:02:36.013Z,999.82
2023-05-11T07:03:35.965Z,999.78
2023-05-11T07:04:36.029Z,999.83
2023-05-11T07:05:35.950Z,999.80
2023-05-11T07:06:35.929Z,999.80
2023-05-11T07:07:35.907Z,999.79
2023-05-11T07:08:35.889Z,999.81
2023-05-11T07:09:35.887Z,999.80
2023-05-11T07:10:35.883Z,999.84
2023-05-11T07:11:35.909Z,999.80
2023-05-11T07:12:35.934Z,999.80
2023-05-11T07:13:35.844Z,999.76
2023-05-11T07:14:35.807Z,999.76
2023-05-11T07:15:35.808Z,999.79
2023-05-11T07:16:35.807Z,999.78
2023-05-11T07:17:35.794Z,999.82
2023-05-11T07:18:35.816Z,999.83
2023-05-11T07:19:35.755Z,999.84
2023-05-11T07:20:35.782Z,999.82
2023-05-11T07:21:35.726Z,999.82
2023-05-11T07:22:35.698Z,999.90
2023-05-11T07:23:35.685Z,999.87
2023-05-11T07:24:35.687Z,999.85
2023-05-11T07:25:35.674Z,999.95
2023-05-11T07:26:35.657Z,999.90
2023-05-11T07:27:35.628Z,999.95
2023-05-11T07:28:35.619Z,999.93
2023-05-11T07:29:35.641Z,999.92
2023-05-11T07:30:35.597Z,999.93
2023-05-11T07:31:35.626Z,999.80
2023-05-11T07:32:35.601Z,999.88
2023-05-11T07:33:35.554Z,999.91
2023-05-11T07:34:35.569Z,999.91
2023-05-11T07:35:35.525Z,999.90
2023-05-11T07:36:35.531Z,999.89
2023-05-11T07:37:35.502Z,999.90
2023-05-11T07:38:35.503Z,999.87
2023-05-11T07:39:35.500Z,999.89
2023-05-11T07:40:35.462Z,999.90
2023-05-11T07:41:35.454Z,999.87
2023-05-11T07:42:35.438Z,999.90
2023-05-11T07:43:35.446Z,999.86
2023-05-11T07:44:35.424Z,999.93
2023-05-11T07:45:35.478Z,999.98
2023-05-11T07:46:35.423Z,999.93
2023-05-11T07:47:36.911Z,999.90
2023-05-11T07:48:35.376Z,999.92
2023-05-11T07:49:43.426Z,999.93
2023-05-11T07:50:35.336Z,999.87
2023-05-11T07:51:35.426Z,999.87
2023-05-11T07:52:35.335Z,999.92
2023-05-11T07:53:35.305Z,999.93
2023-05-11T07:54:35.275Z,999.89
2023-05-11T07:55:35.304Z,999.96
2023-05-11T07:56:35.261Z,999.88
2023-05-11T07:57:35.248Z,999.85
2023-05-11T07:58:35.303Z,999.82
2023-05-11T07:59:35.208Z,999.87
2023-05-11T08:00:35.200Z,999.87
2023-05-11T08:01:35.251Z,999.84
2023-05-11T08:02:35.284Z,999.87
2023-05-11T08:03:35.191Z,999.84
2023-05-11T08:04:35.140Z,999.88
2023-05-11T08:05:35.155Z,999.87
2023-05-11T08:06:35.114Z,999.88
2023-05-11T08:07:35.160Z,999.91
2023-05-11T08:08:35.086Z,999.88
2023-05-11T08:09:35.074Z,999.91
2023-05-11T08:10:35.064Z,999.94
2023-05-11T08:11:35.144Z,999.90
2023-05-11T08:12:35.057Z,999.94
2023-05-11T08:13:35.019Z,999.92
2023-05-11T08:14:35.042Z,999.91
2023-05-11T08:15:35.023Z,999.88
2023-05-11T08:16:35.029Z,999.88
2023-05-11T08:17:35.023Z,999.87
2023-05-11T08:18:35.009Z,999.86
2023-05-11T08:19:34.938Z,999.80
2023-05-11T08:20:34.963Z,999.87
2023-05-11T08:21:34.936Z,999.81
2023-05-11T08:22:35.017Z,999.84
2023-05-11T08:23:34.920Z,999.82
2023-05-11T08:24:34.881Z,999.83
2023-05-11T08:25:34.883Z,999.82
2023-05-11T08:26:34.881Z,999.89
2023-05-11T08:27:34.839Z,999.89
2023-05-11T08:28:34.824Z,999.90
2023-05-11T08:29:34.819Z,999.85
2023-05-11T08:30:34.817Z,999.87
2023-05-11T08:31:34.915Z,999.85
2023-05-11T08:32:46.559Z,999.89
2023-05-11T08:33:38.126Z,999.86
2023-05-11T08:34:34.838Z,999.90
2023-05-11T08:35:34.751Z,999.86
2023-05-11T08:36:34.724Z,999.84
2023-05-11T08:37:34.705Z,999.91
2023-05-11T08:38:34.696Z,999.90
2023-05-11T08:40:34.686Z,999.93
2023-05-11T08:41:34.664Z,999.95
2023-05-11T08:42:34.640Z,999.86
2023-05-11T08:43:34.630Z,999.93
2023-05-11T08:44:34.665Z,999.95
2023-05-11T08:45:34.612Z,999.91
2023-05-11T08:46:34.587Z,999.87
2023-05-11T08:47:34.647Z,999.94
2023-05-11T08:48:34.561Z,999.89
2023-05-11T08:49:34.683Z,999.88
2023-05-11T08:50:34.558Z,999.89
2023-05-11T08:51:34.520Z,999.93
2023-05-11T08:52:34.509Z,999.89
2023-05-11T08:53:34.534Z,999.92
2023-05-11T08:54:34.503Z,999.98
2023-05-11T08:55:34.469Z,999.99
2023-05-11T08:56:34.475Z,999.96
2023-05-11T08:57:34.447Z,999.93
2023-05-11T08:58:34.458Z,1000.01
2023-05-11T08:59:34.431Z,999.92
2023-05-11T09:00:34.405Z,999.96
2023-05-11T09:01:34.404Z,999.96
2023-05-11T09:02:34.393Z,1000.00
2023-05-11T09:03:34.384Z,999.95
2023-05-11T09:04:34.351Z,1000.05
2023-05-11T09:05:34.387Z,1000.00
2023-05-11T09:06:34.337Z,1000.00
2023-05-11T09:07:34.327Z,999.99
2023-05-11T09:08:34.327Z,999.90
2023-05-11T09:09:34.297Z,999.93
2023-05-11T09:10:34.269Z,1000.03
2023-05-11T09:11:34.255Z,999.96
2023-05-11T09:12:34.258Z,1000.04
2023-05-11T09:13:34.229Z,1000.00
2023-05-11T09:14:34.217Z,1000.05
2023-05-11T09:16:37.340Z,999.96
2023-05-11T09:17:34.342Z,999.96
2023-05-11T09:18:34.237Z,999.96
2023-05-11T09:19:34.155Z,999.97
2023-05-11T09:20:34.143Z,1000.01
2023-05-11T09:21:34.160Z,999.97
2023-05-11T09:22:36.251Z,999.99
2023-05-11T09:23:34.100Z,999.99
2023-05-11T09:24:34.086Z,999.98
2023-05-11T09:25:34.072Z,999.95
2023-05-11T09:26:34.075Z,999.94
2023-05-11T09:27:34.045Z,999.96
2023-05-11T09:28:35.916Z,999.98
2023-05-11T09:29:34.020Z,999.94
2023-05-11T09:30:34.043Z,999.97
2023-05-11T09:31:34.103Z,999.98
2023-05-11T09:32:34.003Z,999.98
2023-05-11T09:33:33.971Z,999.97
2023-05-11T09:34:33.959Z,999.96
2023-05-11T09:35:33.965Z,999.97
2023-05-11T09:36:33.931Z,999.92
2023-05-11T09:37:34.038Z,1000.02
2023-05-11T09:38:33.904Z,999.98
2023-05-11T09:39:42.213Z,1000.01
2023-05-11T09:40:35.193Z,1000.02
2023-05-11T09:41:35.538Z,1000.03
2023-05-11T09:42:33.859Z,1000.01
2023-05-11T09:43:33.837Z,1000.04
2023-05-11T09:44:33.841Z,1000.02
2023-05-11T09:45:33.824Z,1000.05
2023-05-11T09:46:33.826Z,1000.08
2023-05-11T09:47:33.806Z,1000.05
2023-05-11T09:48:33.773Z,1000.02
2023-05-11T09:49:33.778Z,1000.05
2023-05-11T09:50:33.746Z,1000.03
2023-05-11T09:51:33.751Z,999.99
2023-05-11T09:52:33.720Z,999.95
2023-05-11T09:53:33.724Z,999.93
2023-05-11T09:54:33.739Z,999.98
2023-05-11T09:55:33.685Z,999.93
2023-05-11T09:56:33.669Z,999.95
2023-05-11T09:57:33.655Z,999.98
2023-05-11T09:58:33.662Z,999.96
2023-05-11T09:59:33.645Z,999.93
2023-05-11T10:00:33.618Z,999.96
2023-05-11T10:01:33.666Z,999.98
2023-05-11T10:02:33.682Z,999.97
2023-05-11T10:03:33.671Z,999.96
2023-05-11T10:04:33.628Z,999.96
2023-05-11T10:05:33.561Z,999.99
2023-05-11T10:06:33.532Z,999.99
2023-05-11T10:07:33.676Z,999.98
2023-05-11T10:08:33.533Z,999.97
2023-05-11T10:09:33.529Z,999.97
2023-05-11T10:10:33.485Z,999.98
2023-05-11T10:11:33.471Z,999.95
2023-05-11T10:12:33.540Z,999.99
2023-05-11T10:13:33.512Z,999.96
2023-05-11T10:14:33.431Z,999.90
2023-05-11T10:15:33.435Z,999.97
2023-05-11T10:16:33.675Z,999.88
2023-05-11T10:17:33.468Z,999.86
2023-05-11T10:18:33.391Z,999.88
2023-05-11T10:19:33.361Z,999.95
2023-05-11T10:20:33.360Z,1000.00
2023-05-11T10:21:33.339Z,999.92
2023-05-11T10:22:33.397Z,999.92
2023-05-11T10:23:33.310Z,999.95
2023-05-11T10:24:33.302Z,999.97
2023-05-11T10:25:33.304Z,999.94
2023-05-11T10:26:33.296Z,999.90
2023-05-11T10:27:33.282Z,999.92
2023-05-11T10:28:33.245Z,999.96
2023-05-11T10:29:33.249Z,999.92
2023-05-11T10:30:33.223Z,999.94
2023-05-11T10:31:33.303Z,999.90
2023-05-11T10:32:33.245Z,999.91
2023-05-11T10:33:42.286Z,999.90
2023-05-11T10:34:33.166Z,999.91
2023-05-11T10:35:33.170Z,999.92
2023-05-11T10:36:33.152Z,999.88
2023-05-11T10:37:33.130Z,999.91
2023-05-11T10:38:33.117Z,999.90
2023-05-11T10:39:33.101Z,999.90
2023-05-11T10:40:33.122Z,999.87
2023-05-11T10:41:33.111Z,999.87
2023-05-11T10:42:33.068Z,999.87
2023-05-11T10:43:33.044Z,999.90
2023-05-11T10:44:33.036Z,999.85
2023-05-11T10:45:33.068Z,999.89
2023-05-11T10:46:33.038Z,999.86
2023-05-11T10:47:33.019Z,999.93
2023-05-11T10:48:32.980Z,999.83
2023-05-11T10:49:32.974Z,999.88
2023-05-11T10:50:32.963Z,999.82
2023-05-11T10:51:32.938Z,999.85
2023-05-11T10:52:32.924Z,999.85
2023-05-11T10:53:32.962Z,999.86
2023-05-11T10:54:33.083Z,999.82
2023-05-11T10:55:32.904Z,999.87
2023-05-11T10:56:32.973Z,999.79
2023-05-11T10:57:33.781Z,999.84
2023-05-11T10:58:32.897Z,999.80
2023-05-11T10:59:32.851Z,999.82
2023-05-11T11:00:32.853Z,999.84
2023-05-11T11:01:32.828Z,999.81
2023-05-11T11:02:32.833Z,999.78
2023-05-11T11:03:32.812Z,999.83
2023-05-11T11:04:32.781Z,999.78
2023-05-11T11:05:32.771Z,999.81
2023-05-11T11:06:32.771Z,999.83
2023-05-11T11:07:32.730Z,999.79
2023-05-11T11:08:32.734Z,999.77
2023-05-11T11:09:32.710Z,999.81
2023-05-11T11:10:32.699Z,999.75
2023-05-11T11:11:32.683Z,999.79
2023-05-11T11:12:32.666Z,999.83
2023-05-11T11:13:32.686Z,999.81
2023-05-11T11:14:32.639Z,999.82
2023-05-11T11:15:32.627Z,999.82
2023-05-11T11:16:32.625Z,999.79
2023-05-11T11:17:32.811Z,999.82
2023-05-11T11:18:32.641Z,999.79
2023-05-11T11:19:32.571Z,999.81
2023-05-11T11:20:32.570Z,999.73
2023-05-11T11:21:32.545Z,999.77
2023-05-11T11:22:32.562Z,999.74
2023-05-11T11:23:32.518Z,999.76
2023-05-11T11:24:32.509Z,999.78
2023-05-11T11:25:32.574Z,999.79
2023-05-11T11:26:32.478Z,999.72
2023-05-11T11:27:32.486Z,999.74
2023-05-11T11:28:32.458Z,999.79
2023-05-11T11:29:32.459Z,999.73
2023-05-11T11:30:32.456Z,999.76
2023-05-11T11:31:32.595Z,999.79
2023-05-11T11:32:32.462Z,999.75
2023-05-11T11:33:32.389Z,999.73
2023-05-11T11:34:32.383Z,999.82
2023-05-11T11:35:32.368Z,999.72
2023-05-11T11:36:32.365Z,999.78
2023-05-11T11:37:32.336Z,999.79
2023-05-11T11:38:32.327Z,999.71
2023-05-11T11:39:32.312Z,999.73
2023-05-11T11:40:46.850Z,999.77
2023-05-11T11:41:32.304Z,999.78
2023-05-11T11:42:32.271Z,999.76
2023-05-11T11:43:32.257Z,999.73
2023-05-11T11:44:32.242Z,999.76
2023-05-11T11:45:32.300Z,999.79
2023-05-11T11:46:32.317Z,999.74
2023-05-11T11:47:32.244Z,999.78
2023-05-11T11:48:32.198Z,999.77
2023-05-11T11:49:32.184Z,999.76
2023-05-11T11:50:32.181Z,999.79
2023-05-11T11:51:32.150Z,999.80
2023-05-11T11:52:32.144Z,999.79
2023-05-11T11:53:32.121Z,999.75
2023-05-11T11:54:32.107Z,999.80
2023-05-11T11:55:32.115Z,999.76
2023-05-11T11:56:32.099Z,999.77
2023-05-11T11:57:32.095Z,999.72
2023-05-11T11:58:32.056Z,999.78
2023-05-11T11:59:32.042Z,999.75
2023-05-11T12:00:32.042Z,999.72
2023-05-11T12:01:32.041Z,999.73
2023-05-11T12:02:32.151Z,999.71
2023-05-11T12:03:32.047Z,999.76
2023-05-11T12:04:32.126Z,999.70
2023-05-11T12:05:31.987Z,999.73
2023-05-11T12:06:31.948Z,999.72
2023-05-11T12:07:31.935Z,999.69
2023-05-11T12:08:31.921Z,999.71
2023-05-11T12:09:31.940Z,999.70
2023-05-11T12:10:31.896Z,999.73
2023-05-11T12:11:31.905Z,999.66
2023-05-11T12:12:31.873Z,999.68
2023-05-11T12:13:31.857Z,999.71
2023-05-11T12:14:31.862Z,999.76
2023-05-11T12:15:31.832Z,999.75
2023-05-11T12:16:31.866Z,999.67
2023-05-11T12:17:31.901Z,999.74
2023-05-11T12:18:31.836Z,999.74
2023-05-11T12:19:31.800Z,999.76
2023-05-11T12:20:31.771Z,999.69
2023-05-11T12:21:31.784Z,999.72
2023-05-11T12:22:31.764Z,999.72
2023-05-11T12:23:31.741Z,999.63
2023-05-11T12:24:31.711Z,999.64
2023-05-11T12:25:31.711Z,999.68
2023-05-11T12:26:31.687Z,999.70
2023-05-11T12:27:31.674Z,999.63
2023-05-11T12:28:31.672Z,999.68
2023-05-11T12:29:31.648Z,999.65